createdAt,value
2023-03-02T00:01:38.986Z,81.30
2023-03-02T00:04:09.788Z,81.49
2023-03-02T00:06:37.103Z,81.32
2023-03-02T00:09:06.126Z,80.89
2023-03-02T00:11:35.709Z,80.95
2023-03-02T00:14:02.655Z,81.00
2023-03-02T00:16:29.445Z,81.09
2023-03-02T00:18:56.407Z,81.22
2023-03-02T00:21:24.617Z,81.72
2023-03-02T00:23:52.299Z,81.13
2023-03-02T00:26:19.638Z,81.51
2023-03-02T00:28:46.805Z,81.58
2023-03-02T00:31:13.561Z,81.14
2023-03-02T00:33:40.293Z,81.35
2023-03-02T00:36:14.179Z,81.12
2023-03-02T00:38:40.839Z,81.58
2023-03-02T00:41:07.711Z,81.27
2023-03-02T00:43:34.315Z,81.74
2023-03-02T00:46:09.287Z,81.61
2023-03-02T00:48:36.158Z,81.42
2023-03-02T00:51:02.957Z,81.25
2023-03-02T00:53:29.944Z,81.55
2023-03-02T00:55:56.718Z,81.41
2023-03-02T00:58:23.512Z,81.47
2023-03-02T01:00:50.371Z,81.27
2023-03-02T01:03:17.393Z,81.56
2023-03-02T01:05:44.359Z,81.60
2023-03-02T01:08:11.594Z,81.34
2023-03-02T01:10:38.918Z,81.64
2023-03-02T01:13:06.396Z,81.15
2023-03-02T01:15:34.083Z,81.14
2023-03-02T01:18:01.222Z,81.21
2023-03-02T01:20:28.354Z,81.12
2023-03-02T01:22:55.541Z,81.64
2023-03-02T01:25:22.238Z,81.33
2023-03-02T01:27:48.919Z,81.35
2023-03-02T01:30:15.790Z,81.52
2023-03-02T01:32:42.534Z,81.50
2023-03-02T01:35:09.804Z,81.06
2023-03-02T01:37:36.389Z,81.21
2023-03-02T01:40:06.525Z,81.23
2023-03-02T01:42:46.217Z,81.46
2023-03-02T01:45:41.291Z,81.67
2023-03-02T01:48:11.158Z,81.45
2023-03-02T01:50:37.965Z,81.63
2023-03-02T01:53:05.585Z,81.55
2023-03-02T01:55:34.123Z,81.47
2023-03-02T01:58:03.142Z,81.69
2023-03-02T02:00:37.822Z,81.73
2023-03-02T02:03:12.817Z,81.51
2023-03-02T02:05:42.807Z,81.46
2023-03-02T02:08:10.357Z,81.58
2023-03-02T02:10:38.433Z,82.00
2023-03-02T02:13:08.893Z,81.92
2023-03-02T02:15:35.791Z,81.49
2023-03-02T02:18:02.526Z,81.88
2023-03-02T02:20:47.672Z,81.71
2023-03-02T02:23:26.490Z,81.83
2023-03-02T02:25:59.428Z,81.72
2023-03-02T02:28:31.933Z,81.85
2023-03-02T02:31:10.629Z,81.63
2023-03-02T02:33:39.420Z,82.07
2023-03-02T02:36:10.267Z,81.69
2023-03-02T02:38:38.788Z,82.04
2023-03-02T02:41:08.945Z,81.82
2023-03-02T02:43:35.895Z,82.34
2023-03-02T02:46:03.474Z,82.60
2023-03-02T02:48:32.478Z,82.26
2023-03-02T02:51:00.570Z,82.55
2023-03-02T02:53:41.068Z,82.38
2023-03-02T02:56:10.286Z,82.37
2023-03-02T02:58:44.316Z,82.42
2023-03-02T03:01:14.801Z,82.85
2023-03-02T03:03:43.883Z,82.54
2023-03-02T03:06:19.005Z,82.46
2023-03-02T03:08:49.076Z,82.64
2023-03-02T03:11:24.469Z,82.94
2023-03-02T03:14:05.010Z,82.51
2023-03-02T03:16:33.642Z,82.96
2023-03-02T03:19:06.679Z,82.76
2023-03-02T03:21:33.598Z,82.64
2023-03-02T03:24:00.495Z,82.45
2023-03-02T03:26:27.231Z,82.44
2023-03-02T03:28:54.043Z,82.95
2023-03-02T03:31:20.875Z,82.58
2023-03-02T03:33:49.194Z,82.88
2023-03-02T03:36:17.969Z,82.88
2023-03-02T03:38:44.866Z,83.32
2023-03-02T03:41:11.758Z,83.17
2023-03-02T03:43:38.856Z,83.13
2023-03-02T03:46:05.523Z,83.16
2023-03-02T03:48:32.305Z,83.57
2023-03-02T03:51:00.612Z,83.60
2023-03-02T03:53:28.445Z,83.34
2023-03-02T03:55:57.166Z,83.66
2023-03-02T03:58:25.496Z,83.26
2023-03-02T04:00:53.301Z,83.37
2023-03-02T04:03:22.361Z,83.74
2023-03-02T04:05:49.858Z,83.30
2023-03-02T04:08:16.565Z,83.53
2023-03-02T04:10:43.754Z,83.48
2023-03-02T04:13:10.698Z,83.66
2023-03-02T04:15:38.739Z,83.29
2023-03-02T04:18:05.461Z,83.48
2023-03-02T04:20:32.520Z,83.89
2023-03-02T04:23:00.036Z,83.99
2023-03-02T04:25:28.579Z,84.03
2023-03-02T04:27:55.998Z,83.71
2023-03-02T04:30:25.194Z,83.84
2023-03-02T04:32:52.364Z,83.77
2023-03-02T04:35:19.357Z,83.99
2023-03-02T04:37:47.114Z,84.14
2023-03-02T04:40:15.313Z,83.99
2023-03-02T04:42:42.035Z,84.03
2023-03-02T04:45:09.142Z,84.21
2023-03-02T04:47:35.858Z,83.75
2023-03-02T04:50:02.828Z,83.79
2023-03-02T04:52:29.715Z,83.66
2023-03-02T04:54:56.539Z,83.62
2023-03-02T04:57:23.243Z,83.98
2023-03-02T04:59:50.055Z,83.76
2023-03-02T05:02:16.955Z,84.22
2023-03-02T05:04:43.806Z,84.21
2023-03-02T05:07:10.562Z,83.96
2023-03-02T05:09:37.441Z,84.13
2023-03-02T05:12:04.393Z,84.54
2023-03-02T05:14:31.801Z,84.36
2023-03-02T05:16:59.338Z,84.47
2023-03-02T05:19:26.106Z,84.66
2023-03-02T05:21:52.884Z,84.72
2023-03-02T05:24:19.707Z,84.38
2023-03-02T05:26:46.428Z,84.50
2023-03-02T05:29:13.478Z,84.66
2023-03-02T05:31:43.480Z,84.99
2023-03-02T05:34:12.950Z,84.87
2023-03-02T05:36:40.423Z,84.79
2023-03-02T05:39:08.640Z,84.63
2023-03-02T05:41:36.595Z,84.77
2023-03-02T05:44:04.726Z,84.60
2023-03-02T05:46:31.941Z,84.34
2023-03-02T05:48:58.797Z,84.84
2023-03-02T05:51:25.594Z,84.58
2023-03-02T05:53:52.520Z,84.84
2023-03-02T05:56:20.783Z,84.82
2023-03-02T05:58:47.415Z,84.67
2023-03-02T06:01:15.557Z,84.64
2023-03-02T06:03:43.618Z,85.04
2023-03-02T06:06:14.274Z,85.08
2023-03-02T06:08:42.404Z,84.83
2023-03-02T06:11:09.974Z,85.34
2023-03-02T06:13:36.875Z,84.68
2023-03-02T06:16:04.055Z,84.62
2023-03-02T06:18:30.976Z,84.77
2023-03-02T06:20:58.066Z,85.00
2023-03-02T06:23:24.944Z,84.88
2023-03-02T06:25:51.662Z,85.28
2023-03-02T06:28:22.110Z,85.42
2023-03-02T06:30:49.974Z,85.65
2023-03-02T06:33:18.163Z,85.45
2023-03-02T06:35:45.880Z,85.51
2023-03-02T06:38:13.148Z,85.40
2023-03-02T06:40:39.864Z,85.46
2023-03-02T06:43:06.599Z,85.57
2023-03-02T06:45:36.170Z,85.34
2023-03-02T06:48:03.529Z,85.40
2023-03-02T06:50:30.716Z,85.59
2023-03-02T06:52:57.625Z,85.52
2023-03-02T06:55:24.441Z,85.77
2023-03-02T06:57:51.408Z,85.45
2023-03-02T07:00:25.881Z,85.65
2023-03-02T07:02:53.880Z,86.02
2023-03-02T07:05:21.508Z,85.75
2023-03-02T07:07:48.198Z,85.70
2023-03-02T07:10:15.799Z,85.81
2023-03-02T07:12:42.747Z,85.83
2023-03-02T07:15:12.299Z,85.20
2023-03-02T07:17:40.855Z,85.35
2023-03-02T07:20:09.037Z,85.94
2023-03-02T07:22:36.044Z,85.59
2023-03-02T07:25:02.896Z,85.94
2023-03-02T07:27:29.669Z,85.73
2023-03-02T07:29:56.301Z,86.21
2023-03-02T07:32:23.216Z,86.03
2023-03-02T07:34:50.034Z,85.85
2023-03-02T07:37:16.708Z,85.68
2023-03-02T07:39:43.449Z,85.60
2023-03-02T07:42:12.544Z,85.89
2023-03-02T07:44:39.308Z,85.73
2023-03-02T07:47:06.417Z,85.41
2023-03-02T07:49:35.306Z,85.48
2023-03-02T07:52:03.136Z,85.67
2023-03-02T07:54:30.632Z,85.64
2023-03-02T07:56:58.411Z,85.26
2023-03-02T07:59:25.851Z,85.42
2023-03-02T08:01:52.832Z,85.46
2023-03-02T08:04:19.959Z,85.25
2023-03-02T08:06:46.811Z,85.79
2023-03-02T08:09:15.765Z,85.92
2023-03-02T08:11:43.652Z,85.48
2023-03-02T08:14:10.645Z,85.33
2023-03-02T08:16:39.067Z,85.47
2023-03-02T08:19:06.022Z,85.45
2023-03-02T08:21:33.854Z,85.13
2023-03-02T08:24:01.151Z,85.55
2023-03-02T08:26:28.013Z,85.58
2023-03-02T08:28:55.309Z,85.74
2023-03-02T08:31:22.439Z,85.70
2023-03-02T08:33:49.750Z,85.72
2023-03-02T08:36:18.884Z,85.20
2023-03-02T08:38:46.925Z,85.37
2023-03-02T08:41:17.138Z,85.08
2023-03-02T08:43:44.138Z,85.34
2023-03-02T08:46:12.847Z,85.05
2023-03-02T08:48:40.137Z,85.15
2023-03-02T08:51:16.063Z,85.44
2023-03-02T08:53:46.295Z,85.25
2023-03-02T08:56:28.749Z,84.97
2023-03-02T08:58:58.841Z,84.89
2023-03-02T09:01:29.935Z,84.77
2023-03-02T09:03:59.917Z,84.76
2023-03-02T09:06:29.615Z,85.20
2023-03-02T09:08:57.810Z,84.66
2023-03-02T09:11:25.217Z,85.12
2023-03-02T09:13:52.181Z,84.60
2023-03-02T09:16:20.549Z,84.92
2023-03-02T09:18:48.036Z,84.95
2023-03-02T09:21:14.797Z,84.85
2023-03-02T09:23:41.997Z,84.62
2023-03-02T09:26:09.509Z,84.40
2023-03-02T09:28:37.014Z,84.88
2023-03-02T09:31:06.039Z,84.67
2023-03-02T09:33:33.700Z,84.62
2023-03-02T09:36:01.570Z,84.65
2023-03-02T09:38:28.397Z,84.37
2023-03-02T09:41:19.075Z,84.22
2023-03-02T09:43:51.684Z,84.13
2023-03-02T09:46:45.536Z,84.19
2023-03-02T09:49:37.809Z,84.37
2023-03-02T09:52:31.761Z,84.01
2023-03-02T09:55:19.803Z,84.39
2023-03-02T09:57:47.211Z,84.40
2023-03-02T10:00:20.430Z,84.29
2023-03-02T10:03:05.143Z,84.06
2023-03-02T10:05:43.975Z,84.14
2023-03-02T10:08:24.704Z,83.94
2023-03-02T10:10:58.076Z,83.79
2023-03-02T10:13:29.797Z,83.84
2023-03-02T10:15:56.673Z,83.65
2023-03-02T10:18:47.033Z,83.19
2023-03-02T10:21:32.051Z,83.35
2023-03-02T10:24:11.299Z,83.14
2023-03-02T10:26:48.385Z,82.82
2023-03-02T10:29:36.624Z,82.81
2023-03-02T10:32:20.883Z,82.63
2023-03-02T10:34:50.212Z,82.71
2023-03-02T10:37:21.654Z,82.70
2023-03-02T10:39:49.412Z,82.49
2023-03-02T10:42:20.949Z,81.94
2023-03-02T10:44:55.086Z,81.57
2023-03-02T10:47:27.959Z,81.54
2023-03-02T10:49:56.506Z,81.03
2023-03-02T10:52:25.968Z,81.13
2023-03-02T10:55:07.397Z,81.36
2023-03-02T10:57:42.173Z,80.53
2023-03-02T11:00:22.473Z,79.61
2023-03-02T11:03:04.600Z,79.62
2023-03-02T11:05:33.281Z,80.82
2023-03-02T11:08:02.701Z,79.86
2023-03-02T11:10:32.751Z,80.41
2023-03-02T11:13:02.108Z,80.41
2023-03-02T11:15:48.876Z,79.60
2023-03-02T11:18:47.109Z,79.86
2023-03-02T11:21:20.795Z,79.57
2023-03-02T11:24:37.012Z,79.28
2023-03-02T11:27:20.271Z,78.79
2023-03-02T11:29:56.168Z,79.01
2023-03-02T11:32:34.751Z,79.36
2023-03-02T11:35:10.042Z,79.00
2023-03-02T11:37:39.546Z,78.98
2023-03-02T11:40:09.277Z,78.97
2023-03-02T11:42:42.159Z,78.93
2023-03-02T11:45:16.870Z,77.50
2023-03-02T11:48:02.146Z,78.39
2023-03-02T11:50:32.444Z,77.81
2023-03-02T11:53:04.156Z,78.03
2023-03-02T11:55:38.216Z,77.86
2023-03-02T11:58:05.980Z,77.56
2023-03-02T12:00:42.599Z,77.69
2023-03-02T12:03:15.262Z,77.41
2023-03-02T12:05:45.266Z,77.53
2023-03-02T12:08:21.346Z,77.17
2023-03-02T12:10:59.584Z,77.38
2023-03-02T12:13:30.456Z,76.94
2023-03-02T12:15:57.619Z,76.96
2023-03-02T12:18:24.882Z,76.68
2023-03-02T12:21:03.878Z,76.55
2023-03-02T12:23:33.161Z,76.23
2023-03-02T12:26:23.501Z,76.55
2023-03-02T12:29:07.558Z,76.05
2023-03-02T12:31:44.851Z,75.85
2023-03-02T12:34:43.104Z,75.37
2023-03-02T12:37:26.213Z,75.80
2023-03-02T12:40:14.265Z,75.92
2023-03-02T12:42:49.802Z,75.71
2023-03-02T12:45:22.363Z,75.62
2023-03-02T12:47:57.392Z,75.81
2023-03-02T12:50:27.671Z,75.31
2023-03-02T12:52:58.808Z,75.18
2023-03-02T12:55:25.562Z,74.95
2023-03-02T12:57:58.060Z,74.22
2023-03-02T13:00:33.782Z,73.98
2023-03-02T13:03:07.264Z,73.70
2023-03-02T13:05:36.185Z,73.79
2023-03-02T13:08:08.236Z,73.90
2023-03-02T13:10:40.555Z,73.93
2023-03-02T13:13:43.645Z,73.61
2023-03-02T13:16:37.205Z,73.98
2023-03-02T13:19:14.886Z,74.31
2023-03-02T13:21:42.122Z,73.79
2023-03-02T13:24:47.042Z,73.46
2023-03-02T13:27:20.772Z,73.09
2023-03-02T13:29:48.588Z,73.44
2023-03-02T13:32:27.331Z,73.67
2023-03-02T13:34:59.609Z,73.93
2023-03-02T13:37:39.303Z,74.09
2023-03-02T13:40:27.116Z,73.79
2023-03-02T13:42:54.944Z,73.30
2023-03-02T13:45:28.012Z,73.62
2023-03-02T13:47:57.522Z,73.45
2023-03-02T13:50:30.115Z,74.13
2023-03-02T13:53:01.850Z,73.39
2023-03-02T13:55:28.832Z,73.35
2023-03-02T13:57:56.322Z,73.25
2023-03-02T14:00:28.673Z,73.23
2023-03-02T14:02:55.409Z,73.39
2023-03-02T14:05:26.722Z,73.25
2023-03-02T14:07:53.643Z,73.30
2023-03-02T14:10:21.046Z,73.55
2023-03-02T14:13:05.454Z,73.28
2023-03-02T14:15:32.802Z,73.36
2023-03-02T14:18:00.592Z,73.02
2023-03-02T14:20:27.624Z,72.97
2023-03-02T14:22:54.344Z,72.58
2023-03-02T14:25:21.113Z,72.74
2023-03-02T14:27:48.085Z,72.84
2023-03-02T14:30:20.712Z,72.28
2023-03-02T14:32:47.496Z,71.99
2023-03-02T14:35:16.833Z,72.21
2023-03-02T14:37:49.567Z,71.86
2023-03-02T14:40:26.810Z,71.78
2023-03-02T14:42:53.927Z,72.02
2023-03-02T14:45:21.447Z,71.97
2023-03-02T14:47:49.032Z,71.91
2023-03-02T14:50:19.330Z,71.84
2023-03-02T14:52:50.067Z,71.66
2023-03-02T14:55:27.028Z,71.06
2023-03-02T14:57:57.798Z,71.35
2023-03-02T15:00:25.148Z,71.15
2023-03-02T15:02:52.047Z,71.40
2023-03-02T15:05:19.044Z,70.93
2023-03-02T15:07:46.689Z,71.18
2023-03-02T15:10:16.974Z,71.43
2023-03-02T15:12:43.852Z,70.86
2023-03-02T15:15:11.721Z,71.35
2023-03-02T15:17:38.838Z,71.20
2023-03-02T15:20:06.571Z,70.89
2023-03-02T15:22:34.417Z,71.11
2023-03-02T15:25:01.118Z,70.91
2023-03-02T15:27:27.933Z,71.05
2023-03-02T15:29:56.798Z,71.20
2023-03-02T15:32:23.686Z,71.05
2023-03-02T15:34:50.673Z,70.74
2023-03-02T15:37:17.525Z,70.97
2023-03-02T15:39:44.609Z,70.98
2023-03-02T15:42:13.498Z,70.67
2023-03-02T15:44:40.597Z,70.75
2023-03-02T15:47:07.345Z,70.56
2023-03-02T15:49:34.184Z,70.47
2023-03-02T15:52:00.950Z,70.70
2023-03-02T15:54:28.956Z,70.47
2023-03-02T15:56:56.250Z,70.74
2023-03-02T15:59:25.233Z,70.67
2023-03-02T16:01:52.992Z,71.02
2023-03-02T16:04:20.403Z,71.45
2023-03-02T16:06:47.423Z,70.92
2023-03-02T16:09:14.146Z,71.26
2023-03-02T16:11:40.981Z,71.63
2023-03-02T16:14:07.750Z,71.31
2023-03-02T16:16:34.698Z,71.51
2023-03-02T16:19:01.684Z,71.53
2023-03-02T16:21:28.944Z,71.62
2023-03-02T16:24:03.352Z,71.91
2023-03-02T16:26:33.550Z,72.12
2023-03-02T16:29:01.055Z,72.30
2023-03-02T16:31:29.369Z,72.05
2023-03-02T16:33:57.627Z,72.66
2023-03-02T16:36:24.780Z,72.78
2023-03-02T16:38:52.097Z,72.75
2023-03-02T16:41:21.694Z,72.62
2023-03-02T16:43:54.367Z,73.33
2023-03-02T16:46:23.137Z,72.97
2023-03-02T16:48:50.831Z,73.26
2023-03-02T16:51:19.654Z,73.19
2023-03-02T16:53:46.876Z,73.47
2023-03-02T16:56:14.693Z,73.67
2023-03-02T16:58:42.045Z,73.79
2023-03-02T17:01:11.486Z,73.94
2023-03-02T17:03:38.228Z,73.47
2023-03-02T17:06:06.877Z,73.89
2023-03-02T17:08:34.101Z,74.11
2023-03-02T17:11:01.097Z,74.09
2023-03-02T17:13:28.204Z,74.18
2023-03-02T17:15:55.148Z,74.25
2023-03-02T17:18:21.910Z,74.07
2023-03-02T17:20:52.510Z,74.70
2023-03-02T17:23:19.262Z,74.72
2023-03-02T17:25:46.076Z,74.60
2023-03-02T17:28:14.973Z,74.72
2023-03-02T17:30:42.852Z,74.69
2023-03-02T17:33:10.562Z,74.83
2023-03-02T17:35:37.965Z,75.30
2023-03-02T17:38:05.155Z,75.33
2023-03-02T17:40:32.272Z,75.60
2023-03-02T17:42:59.245Z,75.62
2023-03-02T17:45:27.976Z,75.39
2023-03-02T17:47:56.326Z,75.68
2023-03-02T17:50:23.640Z,75.80
2023-03-02T17:52:50.480Z,76.04
2023-03-02T17:55:17.320Z,76.13
2023-03-02T17:57:44.375Z,76.28
2023-03-02T18:00:16.457Z,76.41
2023-03-02T18:02:43.307Z,76.20
2023-03-02T18:05:11.151Z,76.51
2023-03-02T18:07:38.144Z,76.44
2023-03-02T18:10:06.396Z,76.99
2023-03-02T18:12:33.845Z,76.45
2023-03-02T18:15:00.729Z,76.62
2023-03-02T18:17:27.522Z,76.80
2023-03-02T18:19:54.465Z,76.88
2023-03-02T18:22:22.057Z,77.03
2023-03-02T18:24:50.510Z,77.11
2023-03-02T18:27:17.619Z,76.89
2023-03-02T18:29:44.485Z,77.36
2023-03-02T18:32:11.772Z,77.04
2023-03-02T18:34:39.021Z,77.45
2023-03-02T18:37:06.070Z,77.53
2023-03-02T18:39:32.857Z,77.55
2023-03-02T18:41:59.887Z,77.48
2023-03-02T18:44:28.394Z,77.54
2023-03-02T18:46:55.806Z,77.73
2023-03-02T18:49:23.220Z,77.61
2023-03-02T18:51:50.585Z,78.17
2023-03-02T18:54:17.420Z,78.00
2023-03-02T18:56:44.776Z,77.73
2023-03-02T18:59:13.300Z,77.82
2023-03-02T19:01:40.246Z,78.44
2023-03-02T19:04:07.256Z,78.26
2023-03-02T19:06:34.304Z,78.06
2023-03-02T19:09:01.055Z,77.96
2023-03-02T19:11:28.025Z,77.93
2023-03-02T19:13:55.026Z,77.84
2023-03-02T19:16:21.832Z,78.31
2023-03-02T19:18:48.942Z,78.35
2023-03-02T19:21:16.713Z,78.37
2023-03-02T19:23:45.572Z,78.17
2023-03-02T19:26:13.179Z,78.85
2023-03-02T19:28:40.101Z,78.78
2023-03-02T19:31:09.393Z,78.53
2023-03-02T19:33:36.841Z,78.80
2023-03-02T19:36:04.625Z,78.98
2023-03-02T19:38:31.522Z,79.06
2023-03-02T19:40:59.788Z,78.98
2023-03-02T19:43:27.551Z,79.31
2023-03-02T19:45:54.293Z,79.22
2023-03-02T19:48:21.381Z,79.17
2023-03-02T19:50:48.487Z,79.49
2023-03-02T19:53:17.151Z,79.09
2023-03-02T19:55:44.828Z,79.80
2023-03-02T19:58:17.191Z,79.29
2023-03-02T20:00:44.507Z,79.52
2023-03-02T20:03:11.598Z,79.62
2023-03-02T20:05:38.440Z,79.92
2023-03-02T20:08:06.467Z,79.86
2023-03-02T20:10:36.900Z,80.59
2023-03-02T20:13:04.773Z,80.45
2023-03-02T20:15:33.564Z,80.48
2023-03-02T20:18:02.460Z,80.60
2023-03-02T20:20:30.558Z,80.75
2023-03-02T20:22:57.777Z,80.56
2023-03-02T20:25:24.605Z,80.82
2023-03-02T20:27:51.963Z,81.13
2023-03-02T20:30:28.146Z,81.12
2023-03-02T20:32:55.828Z,80.96
2023-03-02T20:35:23.379Z,80.86
2023-03-02T20:37:51.415Z,80.85
2023-03-02T20:40:19.449Z,81.14
2023-03-02T20:42:46.195Z,81.33
2023-03-02T20:45:13.843Z,81.56
2023-03-02T20:47:42.031Z,81.12
2023-03-02T20:50:13.597Z,81.26
2023-03-02T20:52:40.465Z,81.30
2023-03-02T20:55:08.757Z,81.40
2023-03-02T20:57:35.645Z,81.48
2023-03-02T21:00:05.299Z,81.09
2023-03-02T21:02:32.542Z,81.42
2023-03-02T21:04:59.313Z,81.61
2023-03-02T21:07:26.131Z,81.61
2023-03-02T21:09:52.928Z,81.91
2023-03-02T21:12:19.604Z,82.23
2023-03-02T21:14:46.697Z,81.58
2023-03-02T21:17:13.527Z,82.08
2023-03-02T21:19:40.240Z,81.49
2023-03-02T21:22:07.172Z,81.94
2023-03-02T21:24:34.102Z,82.04
2023-03-02T21:27:02.580Z,82.25
2023-03-02T21:29:29.837Z,81.88
2023-03-02T21:31:56.833Z,82.08
2023-03-02T21:34:23.761Z,82.25
2023-03-02T21:36:53.805Z,82.25
2023-03-02T21:39:23.566Z,82.01
2023-03-02T21:41:50.716Z,82.15
2023-03-02T21:44:17.679Z,82.32
2023-03-02T21:46:44.641Z,82.19
2023-03-02T21:49:16.160Z,82.34
2023-03-02T21:51:43.205Z,82.18
2023-03-02T21:54:10.382Z,82.11
2023-03-02T21:56:37.497Z,82.27
2023-03-02T21:59:04.414Z,82.44
2023-03-02T22:01:33.001Z,82.13
2023-03-02T22:04:00.678Z,82.48
2023-03-02T22:06:32.189Z,82.28
2023-03-02T22:08:59.405Z,82.40
2023-03-02T22:11:29.235Z,82.16
2023-03-02T22:13:58.632Z,82.22
2023-03-02T22:16:34.703Z,82.60
2023-03-02T22:19:02.112Z,82.45
2023-03-02T22:21:31.839Z,82.38
2023-03-02T22:24:19.033Z,82.59
2023-03-02T22:26:49.838Z,82.71
2023-03-02T22:29:23.366Z,82.50
2023-03-02T22:31:52.734Z,82.64
2023-03-02T22:34:25.131Z,82.58
2023-03-02T23:11:54.210Z,83.18
2023-03-02T23:14:41.084Z,83.42
2023-03-02T23:17:21.682Z,83.12
2023-03-02T23:19:50.066Z,83.70
2023-03-02T23:22:17.188Z,83.90
2023-03-02T23:24:43.941Z,83.26
2023-03-02T23:27:11.763Z,83.34
2023-03-02T23:29:38.498Z,83.22
2023-03-02T23:32:05.609Z,83.21
2023-03-02T23:34:32.470Z,83.39
2023-03-02T23:36:59.604Z,83.77
2023-03-02T23:39:26.922Z,83.64
2023-03-02T23:41:53.850Z,83.73
2023-03-02T23:44:20.918Z,83.68
2023-03-02T23:46:48.332Z,83.41
2023-03-02T23:49:15.587Z,83.71
2023-03-02T23:51:42.289Z,83.41
2023-03-02T23:54:09.551Z,83.31
2023-03-02T23:56:36.438Z,83.90
2023-03-02T23:59:03.425Z,83.66
